首页
METAR-TAF:

METAR-TAF

机场 :

Dodge City, 堪薩斯州, 美国

纬度: 37-46-22N, 经度: 099-58-11W, 海拔: 790米

当前天气观测

该预报发布于16分钟前的06:52 UTC
风速13节,风向南转西南
温度 23°C
湿度 69%
气压 1013 hPa
能見度: 16.1公里
天空无云

METAR: KDDC 130652Z AUTO 20013KT 10SM CLR 23/17 A2991 RMK AO2 SLP091 T02330172

时间: 02:08 (07:08 UTC)

预报

该预报发布于1小时和48分钟前的05:20 UTC
预报有效从13日的 06点(UTC)到 14日的 06点(UTC)
风速11节,风向,有时为21节阵风
能見度: 10公里
天空无云
从 13日的 2200点(UTC)
风速9节,风向南转南东
能見度: 10公里
散云层高于25000英尺, 积雨云.
附近有雷暴
从 13日的 2300点(UTC)
风速10节,风向东北
能見度: 10公里
散云层高于25000英尺, 积雨云.
附近有雷暴,

TAF: KDDC 130520Z 1306/1406 19011G21KT P6SM SKC FM132200 16009KT P6SM VCTS SCT250CB FM132300 04010KT P6SM VCTS SCT250CB

超过4000个机场的气象观测和天气预报(METAR&TAF报告)。

可查询的气象台以黄色和红色小点在地图上表示。

将鼠标移到小点上方,可查看气象台名称。

然后点击查看天气观测和预报。

如需切换地图:点击带黑十字的绿色按钮放大地图;点击带横线的绿色按钮缩小地图;或者点击绿色箭头查看邻近地区的地图。


METAR-TAF: